CPX333 Details

Departure: Valley International Airport (KHRL)
Arrival: Austin-Bergstrom International Airport (KAUS)
Route: CRP PCKIT


Current Weather Information
KHRL 261022Z AUTO 03005KT 7SM SCT004 BKN011 19/19 A3011 RMK AO2 T01940189
KAUS 260953Z 07004KT 10SM SCT250 11/08 A3024 RMK AO2 SLP236 T01060078 $